sensor_id;sensor_type;location;lat;lon;timestamp;P1;durP1;ratioP1;P2;durP2;ratioP2
8584;SDS011;7180;52.742;11.420;2022-07-05T00:01:44;4.20;;;3.93;;
8584;SDS011;7180;52.742;11.420;2022-07-05T00:04:09;4.10;;;3.80;;
8584;SDS011;7180;52.742;11.420;2022-07-05T00:06:34;4.40;;;4.10;;
8584;SDS011;7180;52.742;11.420;2022-07-05T00:09:00;4.50;;;4.03;;
8584;SDS011;7180;52.742;11.420;2022-07-05T00:11:25;4.10;;;3.80;;
8584;SDS011;7180;52.742;11.420;2022-07-05T00:13:50;5.00;;;3.90;;
8584;SDS011;7180;52.742;11.420;2022-07-05T00:16:16;4.57;;;4.20;;
8584;SDS011;7180;52.742;11.420;2022-07-05T00:18:41;4.47;;;4.17;;
8584;SDS011;7180;52.742;11.420;2022-07-05T00:21:07;4.07;;;3.87;;
8584;SDS011;7180;52.742;11.420;2022-07-05T00:23:32;4.20;;;4.00;;
8584;SDS011;7180;52.742;11.420;2022-07-05T00:25:58;4.30;;;3.90;;
8584;SDS011;7180;52.742;11.420;2022-07-05T00:28:23;4.17;;;3.93;;
8584;SDS011;7180;52.742;11.420;2022-07-05T00:30:48;4.00;;;3.80;;
8584;SDS011;7180;52.742;11.420;2022-07-05T00:33:14;4.23;;;3.93;;
8584;SDS011;7180;52.742;11.420;2022-07-05T00:35:39;4.20;;;3.90;;
8584;SDS011;7180;52.742;11.420;2022-07-05T00:38:04;4.17;;;3.90;;
8584;SDS011;7180;52.742;11.420;2022-07-05T00:40:30;4.70;;;4.30;;
8584;SDS011;7180;52.742;11.420;2022-07-05T00:42:55;4.53;;;4.23;;
8584;SDS011;7180;52.742;11.420;2022-07-05T00:45:20;4.57;;;4.27;;
8584;SDS011;7180;52.742;11.420;2022-07-05T00:47:46;4.67;;;4.23;;
8584;SDS011;7180;52.742;11.420;2022-07-05T00:50:11;4.27;;;3.90;;
8584;SDS011;7180;52.742;11.420;2022-07-05T00:52:36;4.60;;;4.27;;
8584;SDS011;7180;52.742;11.420;2022-07-05T00:55:02;4.40;;;4.20;;
8584;SDS011;7180;52.742;11.420;2022-07-05T00:57:27;4.47;;;4.20;;
8584;SDS011;7180;52.742;11.420;2022-07-05T00:59:53;4.77;;;4.37;;
8584;SDS011;7180;52.742;11.420;2022-07-05T01:02:18;4.60;;;4.20;;
8584;SDS011;7180;52.742;11.420;2022-07-05T01:04:49;4.63;;;4.23;;
8584;SDS011;7180;52.742;11.420;2022-07-05T01:07:15;4.10;;;3.70;;
8584;SDS011;7180;52.742;11.420;2022-07-05T01:09:45;4.00;;;3.70;;
8584;SDS011;7180;52.742;11.420;2022-07-05T01:12:10;4.13;;;3.83;;
8584;SDS011;7180;52.742;11.420;2022-07-05T01:14:36;4.10;;;3.70;;
8584;SDS011;7180;52.742;11.420;2022-07-05T01:17:01;3.80;;;3.60;;
8584;SDS011;7180;52.742;11.420;2022-07-05T01:19:26;4.10;;;3.80;;
8584;SDS011;7180;52.742;11.420;2022-07-05T01:21:52;4.40;;;4.00;;
8584;SDS011;7180;52.742;11.420;2022-07-05T01:24:17;4.17;;;3.90;;
8584;SDS011;7180;52.742;11.420;2022-07-05T01:26:46;4.27;;;3.97;;
8584;SDS011;7180;52.742;11.420;2022-07-05T01:29:13;3.93;;;3.73;;
8584;SDS011;7180;52.742;11.420;2022-07-05T01:31:38;4.37;;;4.07;;
8584;SDS011;7180;52.742;11.420;2022-07-05T01:34:05;4.30;;;4.00;;
8584;SDS011;7180;52.742;11.420;2022-07-05T01:36:31;4.17;;;3.87;;
8584;SDS011;7180;52.742;11.420;2022-07-05T01:38:57;4.10;;;3.90;;
8584;SDS011;7180;52.742;11.420;2022-07-05T01:41:22;3.90;;;3.70;;
8584;SDS011;7180;52.742;11.420;2022-07-05T01:43:47;4.00;;;3.63;;
8584;SDS011;7180;52.742;11.420;2022-07-05T01:46:13;4.07;;;3.73;;
8584;SDS011;7180;52.742;11.420;2022-07-05T01:48:41;4.10;;;3.80;;
8584;SDS011;7180;52.742;11.420;2022-07-05T01:51:13;4.00;;;3.80;;
8584;SDS011;7180;52.742;11.420;2022-07-05T01:53:44;4.47;;;4.07;;
8584;SDS011;7180;52.742;11.420;2022-07-05T01:56:11;4.40;;;4.10;;
8584;SDS011;7180;52.742;11.420;2022-07-05T01:58:37;4.20;;;3.90;;
8584;SDS011;7180;52.742;11.420;2022-07-05T02:01:03;4.37;;;4.07;;
8584;SDS011;7180;52.742;11.420;2022-07-05T02:03:28;4.20;;;3.90;;
8584;SDS011;7180;52.742;11.420;2022-07-05T02:05:54;4.63;;;4.23;;
8584;SDS011;7180;52.742;11.420;2022-07-05T02:08:20;4.30;;;4.00;;
8584;SDS011;7180;52.742;11.420;2022-07-05T02:10:46;4.30;;;4.00;;
8584;SDS011;7180;52.742;11.420;2022-07-05T02:13:11;4.30;;;4.10;;
8584;SDS011;7180;52.742;11.420;2022-07-05T02:15:38;4.33;;;4.03;;
8584;SDS011;7180;52.742;11.420;2022-07-05T02:18:05;4.00;;;3.80;;
8584;SDS011;7180;52.742;11.420;2022-07-05T02:20:32;4.43;;;4.13;;
8584;SDS011;7180;52.742;11.420;2022-07-05T02:22:58;4.43;;;4.10;;
8584;SDS011;7180;52.742;11.420;2022-07-05T02:25:23;4.20;;;3.97;;
8584;SDS011;7180;52.742;11.420;2022-07-05T02:27:50;4.30;;;3.90;;
8584;SDS011;7180;52.742;11.420;2022-07-05T02:30:16;4.30;;;4.10;;
8584;SDS011;7180;52.742;11.420;2022-07-05T02:32:42;3.90;;;3.70;;
8584;SDS011;7180;52.742;11.420;2022-07-05T02:35:08;3.87;;;3.67;;
8584;SDS011;7180;52.742;11.420;2022-07-05T02:37:35;4.70;;;4.30;;
8584;SDS011;7180;52.742;11.420;2022-07-05T02:40:01;4.43;;;4.20;;
8584;SDS011;7180;52.742;11.420;2022-07-05T02:42:27;4.30;;;4.10;;
8584;SDS011;7180;52.742;11.420;2022-07-05T02:44:52;4.33;;;3.93;;
8584;SDS011;7180;52.742;11.420;2022-07-05T02:47:17;4.30;;;4.00;;
8584;SDS011;7180;52.742;11.420;2022-07-05T02:49:43;4.40;;;4.10;;
8584;SDS011;7180;52.742;11.420;2022-07-05T02:52:08;4.50;;;4.20;;
8584;SDS011;7180;52.742;11.420;2022-07-05T02:54:33;4.80;;;4.40;;
8584;SDS011;7180;52.742;11.420;2022-07-05T02:56:59;4.83;;;4.50;;
8584;SDS011;7180;52.742;11.420;2022-07-05T02:59:25;4.50;;;4.30;;
8584;SDS011;7180;52.742;11.420;2022-07-05T03:01:50;4.67;;;4.30;;
8584;SDS011;7180;52.742;11.420;2022-07-05T03:04:15;4.93;;;4.57;;
8584;SDS011;7180;52.742;11.420;2022-07-05T03:06:40;5.13;;;4.83;;
8584;SDS011;7180;52.742;11.420;2022-07-05T03:09:06;4.93;;;4.57;;
8584;SDS011;7180;52.742;11.420;2022-07-05T03:11:31;4.93;;;4.63;;
8584;SDS011;7180;52.742;11.420;2022-07-05T03:13:56;4.97;;;4.57;;
8584;SDS011;7180;52.742;11.420;2022-07-05T03:16:22;4.77;;;4.53;;
8584;SDS011;7180;52.742;11.420;2022-07-05T03:18:50;4.93;;;4.63;;
8584;SDS011;7180;52.742;11.420;2022-07-05T03:21:15;5.40;;;4.90;;
8584;SDS011;7180;52.742;11.420;2022-07-05T03:23:41;5.37;;;4.87;;
8584;SDS011;7180;52.742;11.420;2022-07-05T03:26:06;5.23;;;4.80;;
8584;SDS011;7180;52.742;11.420;2022-07-05T03:28:32;5.63;;;5.23;;
8584;SDS011;7180;52.742;11.420;2022-07-05T03:30:57;5.63;;;5.23;;
8584;SDS011;7180;52.742;11.420;2022-07-05T03:33:22;5.70;;;5.20;;
8584;SDS011;7180;52.742;11.420;2022-07-05T03:35:48;5.27;;;4.87;;
8584;SDS011;7180;52.742;11.420;2022-07-05T03:38:13;5.10;;;4.80;;
8584;SDS011;7180;52.742;11.420;2022-07-05T03:40:38;5.73;;;5.30;;
8584;SDS011;7180;52.742;11.420;2022-07-05T03:43:03;5.20;;;4.80;;
8584;SDS011;7180;52.742;11.420;2022-07-05T03:45:29;5.27;;;4.90;;
8584;SDS011;7180;52.742;11.420;2022-07-05T03:47:57;5.17;;;4.77;;
8584;SDS011;7180;52.742;11.420;2022-07-05T03:50:23;5.20;;;4.80;;
8584;SDS011;7180;52.742;11.420;2022-07-05T03:52:49;5.30;;;4.90;;
8584;SDS011;7180;52.742;11.420;2022-07-05T03:55:14;5.10;;;4.70;;
8584;SDS011;7180;52.742;11.420;2022-07-05T03:57:39;5.20;;;4.90;;
8584;SDS011;7180;52.742;11.420;2022-07-05T04:00:04;5.20;;;4.90;;
8584;SDS011;7180;52.742;11.420;2022-07-05T04:02:30;5.67;;;5.27;;
8584;SDS011;7180;52.742;11.420;2022-07-05T04:04:56;5.37;;;4.87;;
8584;SDS011;7180;52.742;11.420;2022-07-05T04:07:21;4.97;;;4.67;;
8584;SDS011;7180;52.742;11.420;2022-07-05T04:09:46;5.40;;;5.10;;
8584;SDS011;7180;52.742;11.420;2022-07-05T04:12:11;5.83;;;5.43;;
8584;SDS011;7180;52.742;11.420;2022-07-05T04:14:37;6.03;;;5.63;;
8584;SDS011;7180;52.742;11.420;2022-07-05T04:17:02;6.17;;;5.70;;
8584;SDS011;7180;52.742;11.420;2022-07-05T04:19:27;6.10;;;5.70;;
8584;SDS011;7180;52.742;11.420;2022-07-05T04:21:53;5.40;;;5.00;;
8584;SDS011;7180;52.742;11.420;2022-07-05T04:24:18;5.43;;;5.00;;
8584;SDS011;7180;52.742;11.420;2022-07-05T04:26:43;6.00;;;5.50;;
8584;SDS011;7180;52.742;11.420;2022-07-05T04:29:09;6.00;;;5.60;;
8584;SDS011;7180;52.742;11.420;2022-07-05T04:31:34;5.40;;;4.90;;
8584;SDS011;7180;52.742;11.420;2022-07-05T04:34:00;5.03;;;4.63;;
8584;SDS011;7180;52.742;11.420;2022-07-05T04:36:25;4.80;;;4.50;;
8584;SDS011;7180;52.742;11.420;2022-07-05T04:38:50;5.27;;;4.90;;
8584;SDS011;7180;52.742;11.420;2022-07-05T04:41:16;6.07;;;5.60;;
8584;SDS011;7180;52.742;11.420;2022-07-05T04:43:41;5.03;;;4.63;;
8584;SDS011;7180;52.742;11.420;2022-07-05T04:46:06;5.10;;;4.70;;
8584;SDS011;7180;52.742;11.420;2022-07-05T04:48:31;6.97;;;5.63;;
8584;SDS011;7180;52.742;11.420;2022-07-05T04:50:57;6.17;;;5.70;;
8584;SDS011;7180;52.742;11.420;2022-07-05T04:53:23;5.10;;;4.80;;
8584;SDS011;7180;52.742;11.420;2022-07-05T04:55:48;5.40;;;5.00;;
8584;SDS011;7180;52.742;11.420;2022-07-05T04:58:13;5.93;;;5.53;;
8584;SDS011;7180;52.742;11.420;2022-07-05T05:00:39;5.37;;;4.97;;
8584;SDS011;7180;52.742;11.420;2022-07-05T05:03:04;7.00;;;6.60;;
8584;SDS011;7180;52.742;11.420;2022-07-05T05:05:29;5.77;;;5.37;;
8584;SDS011;7180;52.742;11.420;2022-07-05T05:07:54;6.37;;;6.00;;
8584;SDS011;7180;52.742;11.420;2022-07-05T05:10:20;5.03;;;4.73;;
8584;SDS011;7180;52.742;11.420;2022-07-05T05:12:45;5.30;;;4.80;;
8584;SDS011;7180;52.742;11.420;2022-07-05T05:15:10;5.27;;;4.70;;
8584;SDS011;7180;52.742;11.420;2022-07-05T05:17:36;5.43;;;4.93;;
8584;SDS011;7180;52.742;11.420;2022-07-05T05:20:07;6.33;;;5.90;;
8584;SDS011;7180;52.742;11.420;2022-07-05T05:22:36;6.20;;;5.77;;
8584;SDS011;7180;52.742;11.420;2022-07-05T05:25:01;6.50;;;6.10;;
8584;SDS011;7180;52.742;11.420;2022-07-05T05:27:28;5.10;;;4.70;;
8584;SDS011;7180;52.742;11.420;2022-07-05T05:29:53;5.23;;;4.87;;
8584;SDS011;7180;52.742;11.420;2022-07-05T05:32:18;5.67;;;5.27;;
8584;SDS011;7180;52.742;11.420;2022-07-05T05:34:43;5.40;;;5.10;;
8584;SDS011;7180;52.742;11.420;2022-07-05T05:37:09;5.50;;;5.10;;
8584;SDS011;7180;52.742;11.420;2022-07-05T05:39:34;6.77;;;5.40;;
8584;SDS011;7180;52.742;11.420;2022-07-05T05:42:00;6.10;;;5.60;;
8584;SDS011;7180;52.742;11.420;2022-07-05T05:44:25;5.73;;;5.33;;
8584;SDS011;7180;52.742;11.420;2022-07-05T05:46:50;5.50;;;5.10;;
8584;SDS011;7180;52.742;11.420;2022-07-05T05:49:15;5.30;;;4.90;;
8584;SDS011;7180;52.742;11.420;2022-07-05T05:51:41;5.10;;;4.80;;
8584;SDS011;7180;52.742;11.420;2022-07-05T05:54:06;5.27;;;4.83;;
8584;SDS011;7180;52.742;11.420;2022-07-05T05:56:31;5.05;;;4.75;;
8584;SDS011;7180;52.742;11.420;2022-07-05T05:58:57;4.80;;;4.60;;
8584;SDS011;7180;52.742;11.420;2022-07-05T06:01:22;5.10;;;4.60;;
8584;SDS011;7180;52.742;11.420;2022-07-05T06:03:47;5.10;;;4.80;;
8584;SDS011;7180;52.742;11.420;2022-07-05T06:06:12;4.93;;;4.63;;
8584;SDS011;7180;52.742;11.420;2022-07-05T06:08:38;5.10;;;4.80;;
8584;SDS011;7180;52.742;11.420;2022-07-05T06:11:03;4.80;;;4.60;;
8584;SDS011;7180;52.742;11.420;2022-07-05T06:13:30;5.25;;;4.80;;
8584;SDS011;7180;52.742;11.420;2022-07-05T06:15:55;4.68;;;4.28;;
8584;SDS011;7180;52.742;11.420;2022-07-05T06:18:21;4.90;;;4.60;;
8584;SDS011;7180;52.742;11.420;2022-07-05T06:20:47;4.90;;;4.60;;
8584;SDS011;7180;52.742;11.420;2022-07-05T06:23:12;4.72;;;4.53;;
8584;SDS011;7180;52.742;11.420;2022-07-05T06:25:37;4.88;;;4.57;;
8584;SDS011;7180;52.742;11.420;2022-07-05T06:28:04;4.88;;;4.60;;
8584;SDS011;7180;52.742;11.420;2022-07-05T06:30:31;5.20;;;4.80;;
8584;SDS011;7180;52.742;11.420;2022-07-05T06:33:04;4.85;;;4.55;;
8584;SDS011;7180;52.742;11.420;2022-07-05T06:35:30;4.80;;;4.50;;
8584;SDS011;7180;52.742;11.420;2022-07-05T06:38:03;4.93;;;4.63;;
8584;SDS011;7180;52.742;11.420;2022-07-05T06:40:31;5.40;;;4.90;;
8584;SDS011;7180;52.742;11.420;2022-07-05T06:43:05;13.35;;;5.97;;
8584;SDS011;7180;52.742;11.420;2022-07-05T06:45:31;15.52;;;7.85;;
8584;SDS011;7180;52.742;11.420;2022-07-05T06:47:57;5.10;;;4.60;;
8584;SDS011;7180;52.742;11.420;2022-07-05T06:50:31;5.60;;;4.85;;
8584;SDS011;7180;52.742;11.420;2022-07-05T06:52:58;6.93;;;4.95;;
8584;SDS011;7180;52.742;11.420;2022-07-05T06:55:24;4.40;;;4.07;;
8584;SDS011;7180;52.742;11.420;2022-07-05T06:57:57;4.25;;;3.95;;
8584;SDS011;7180;52.742;11.420;2022-07-05T07:00:26;4.40;;;4.10;;
8584;SDS011;7180;52.742;11.420;2022-07-05T07:02:52;4.82;;;4.30;;
8584;SDS011;7180;52.742;11.420;2022-07-05T07:05:18;4.28;;;4.07;;
8584;SDS011;7180;52.742;11.420;2022-07-05T07:07:43;4.40;;;4.10;;
8584;SDS011;7180;52.742;11.420;2022-07-05T07:10:27;4.50;;;4.20;;
8584;SDS011;7180;52.742;11.420;2022-07-05T07:12:52;4.30;;;4.10;;
8584;SDS011;7180;52.742;11.420;2022-07-05T07:15:18;4.88;;;4.53;;
8584;SDS011;7180;52.742;11.420;2022-07-05T07:17:43;4.57;;;4.28;;
8584;SDS011;7180;52.742;11.420;2022-07-05T07:20:08;4.72;;;4.35;;
8584;SDS011;7180;52.742;11.420;2022-07-05T07:22:34;4.65;;;4.35;;
8584;SDS011;7180;52.742;11.420;2022-07-05T07:24:59;4.35;;;4.00;;
8584;SDS011;7180;52.742;11.420;2022-07-05T07:27:24;4.40;;;4.00;;
8584;SDS011;7180;52.742;11.420;2022-07-05T07:29:50;4.40;;;4.00;;
8584;SDS011;7180;52.742;11.420;2022-07-05T07:32:15;4.13;;;3.90;;
8584;SDS011;7180;52.742;11.420;2022-07-05T07:34:40;4.13;;;3.85;;
8584;SDS011;7180;52.742;11.420;2022-07-05T07:37:06;4.10;;;3.90;;
8584;SDS011;7180;52.742;11.420;2022-07-05T07:39:34;4.13;;;3.85;;
8584;SDS011;7180;52.742;11.420;2022-07-05T07:41:59;4.50;;;4.13;;
8584;SDS011;7180;52.742;11.420;2022-07-05T07:44:25;4.40;;;4.20;;
8584;SDS011;7180;52.742;11.420;2022-07-05T07:46:52;4.60;;;4.20;;
8584;SDS011;7180;52.742;11.420;2022-07-05T07:49:18;4.30;;;4.10;;
8584;SDS011;7180;52.742;11.420;2022-07-05T07:51:44;4.43;;;4.20;;
8584;SDS011;7180;52.742;11.420;2022-07-05T07:54:09;4.05;;;3.85;;
8584;SDS011;7180;52.742;11.420;2022-07-05T07:56:35;4.35;;;3.95;;
8584;SDS011;7180;52.742;11.420;2022-07-05T07:59:00;4.30;;;4.10;;
8584;SDS011;7180;52.742;11.420;2022-07-05T08:01:26;4.53;;;4.20;;
8584;SDS011;7180;52.742;11.420;2022-07-05T08:03:51;4.68;;;4.38;;
8584;SDS011;7180;52.742;11.420;2022-07-05T08:06:16;4.60;;;4.40;;
8584;SDS011;7180;52.742;11.420;2022-07-05T08:08:42;4.25;;;3.95;;
8584;SDS011;7180;52.742;11.420;2022-07-05T08:11:09;4.60;;;4.18;;
8584;SDS011;7180;52.742;11.420;2022-07-05T08:13:36;5.37;;;4.30;;
8584;SDS011;7180;52.742;11.420;2022-07-05T08:16:02;4.55;;;4.25;;
8584;SDS011;7180;52.742;11.420;2022-07-05T08:18:28;4.28;;;3.88;;
8584;SDS011;7180;52.742;11.420;2022-07-05T08:21:12;4.57;;;4.37;;
8584;SDS011;7180;52.742;11.420;2022-07-05T08:23:56;4.20;;;3.90;;
8584;SDS011;7180;52.742;11.420;2022-07-05T08:26:22;4.60;;;3.90;;
8584;SDS011;7180;52.742;11.420;2022-07-05T08:28:47;4.70;;;4.47;;
8584;SDS011;7180;52.742;11.420;2022-07-05T08:31:13;4.90;;;4.60;;
8584;SDS011;7180;52.742;11.420;2022-07-05T08:33:38;4.80;;;4.50;;
8584;SDS011;7180;52.742;11.420;2022-07-05T08:36:04;4.70;;;4.43;;
8584;SDS011;7180;52.742;11.420;2022-07-05T08:38:29;4.90;;;4.50;;
8584;SDS011;7180;52.742;11.420;2022-07-05T08:40:55;4.87;;;4.60;;
8584;SDS011;7180;52.742;11.420;2022-07-05T08:43:21;4.67;;;4.37;;
8584;SDS011;7180;52.742;11.420;2022-07-05T08:45:52;4.40;;;4.10;;
8584;SDS011;7180;52.742;11.420;2022-07-05T08:48:19;4.60;;;4.30;;
8584;SDS011;7180;52.742;11.420;2022-07-05T08:50:45;4.30;;;4.10;;
8584;SDS011;7180;52.742;11.420;2022-07-05T08:53:13;4.47;;;4.20;;
8584;SDS011;7180;52.742;11.420;2022-07-05T08:55:40;4.20;;;4.00;;
8584;SDS011;7180;52.742;11.420;2022-07-05T08:58:05;4.70;;;4.50;;
8584;SDS011;7180;52.742;11.420;2022-07-05T09:00:31;4.00;;;3.70;;
8584;SDS011;7180;52.742;11.420;2022-07-05T09:02:56;4.30;;;4.10;;
8584;SDS011;7180;52.742;11.420;2022-07-05T09:05:22;4.83;;;4.43;;
8584;SDS011;7180;52.742;11.420;2022-07-05T09:07:59;5.00;;;4.70;;
8584;SDS011;7180;52.742;11.420;2022-07-05T09:10:26;5.30;;;4.47;;
8584;SDS011;7180;52.742;11.420;2022-07-05T09:12:53;4.70;;;4.30;;
8584;SDS011;7180;52.742;11.420;2022-07-05T09:15:19;3.70;;;3.50;;
8584;SDS011;7180;52.742;11.420;2022-07-05T09:17:45;3.60;;;3.40;;
8584;SDS011;7180;52.742;11.420;2022-07-05T09:25:30;4.50;;;4.30;;
8584;SDS011;7180;52.742;11.420;2022-07-05T09:27:57;4.97;;;4.60;;
8584;SDS011;7180;52.742;11.420;2022-07-05T09:30:24;4.50;;;4.20;;
8584;SDS011;7180;52.742;11.420;2022-07-05T09:33:11;5.23;;;4.77;;
8584;SDS011;7180;52.742;11.420;2022-07-05T09:35:40;4.50;;;4.20;;
8584;SDS011;7180;52.742;11.420;2022-07-05T09:38:17;4.60;;;4.30;;
8584;SDS011;7180;52.742;11.420;2022-07-05T09:40:47;4.07;;;3.87;;
8584;SDS011;7180;52.742;11.420;2022-07-05T09:43:15;4.50;;;4.27;;
8584;SDS011;7180;52.742;11.420;2022-07-05T09:45:58;4.23;;;4.03;;
8584;SDS011;7180;52.742;11.420;2022-07-05T09:48:28;5.07;;;4.77;;
8584;SDS011;7180;52.742;11.420;2022-07-05T09:51:11;4.93;;;4.60;;
8584;SDS011;7180;52.742;11.420;2022-07-05T09:54:10;4.60;;;4.30;;
8584;SDS011;7180;52.742;11.420;2022-07-05T09:56:29;4.80;;;4.60;;
8584;SDS011;7180;52.742;11.420;2022-07-05T09:58:54;4.70;;;4.40;;
8584;SDS011;7180;52.742;11.420;2022-07-05T10:03:53;4.80;;;4.40;;
8584;SDS011;7180;52.742;11.420;2022-07-05T10:06:20;4.10;;;3.90;;
8584;SDS011;7180;52.742;11.420;2022-07-05T10:08:47;4.30;;;4.10;;
8584;SDS011;7180;52.742;11.420;2022-07-05T10:11:14;4.90;;;4.60;;
8584;SDS011;7180;52.742;11.420;2022-07-05T10:13:40;4.00;;;3.80;;
8584;SDS011;7180;52.742;11.420;2022-07-05T10:16:06;3.90;;;3.70;;
8584;SDS011;7180;52.742;11.420;2022-07-05T10:18:32;4.00;;;3.80;;
8584;SDS011;7180;52.742;11.420;2022-07-05T10:20:59;4.47;;;4.10;;
8584;SDS011;7180;52.742;11.420;2022-07-05T10:23:29;4.60;;;4.40;;
8584;SDS011;7180;52.742;11.420;2022-07-05T10:25:55;4.40;;;4.10;;
8584;SDS011;7180;52.742;11.420;2022-07-05T10:28:22;4.57;;;4.30;;
8584;SDS011;7180;52.742;11.420;2022-07-05T10:30:47;4.70;;;4.40;;
8584;SDS011;7180;52.742;11.420;2022-07-05T10:33:19;4.77;;;4.57;;
8584;SDS011;7180;52.742;11.420;2022-07-05T10:35:52;5.00;;;4.70;;
8584;SDS011;7180;52.742;11.420;2022-07-05T10:38:18;4.33;;;4.10;;
8584;SDS011;7180;52.742;11.420;2022-07-05T10:40:46;4.90;;;4.70;;
8584;SDS011;7180;52.742;11.420;2022-07-05T10:43:15;4.53;;;4.30;;
8584;SDS011;7180;52.742;11.420;2022-07-05T10:45:47;4.17;;;3.97;;
8584;SDS011;7180;52.742;11.420;2022-07-05T10:50:51;4.40;;;4.20;;
8584;SDS011;7180;52.742;11.420;2022-07-05T10:53:19;4.30;;;4.10;;
8584;SDS011;7180;52.742;11.420;2022-07-05T10:55:53;4.17;;;3.97;;
8584;SDS011;7180;52.742;11.420;2022-07-05T10:58:29;4.53;;;4.20;;
8584;SDS011;7180;52.742;11.420;2022-07-05T11:06:39;4.10;;;3.90;;
8584;SDS011;7180;52.742;11.420;2022-07-05T11:12:00;4.30;;;4.10;;
8584;SDS011;7180;52.742;11.420;2022-07-05T11:17:37;4.47;;;4.17;;
8584;SDS011;7180;52.742;11.420;2022-07-05T11:20:02;4.10;;;3.90;;
8584;SDS011;7180;52.742;11.420;2022-07-05T11:22:34;4.30;;;4.10;;
8584;SDS011;7180;52.742;11.420;2022-07-05T11:25:00;4.27;;;4.07;;
8584;SDS011;7180;52.742;11.420;2022-07-05T11:27:27;3.57;;;3.30;;
8584;SDS011;7180;52.742;11.420;2022-07-05T11:29:54;4.03;;;3.73;;
8584;SDS011;7180;52.742;11.420;2022-07-05T11:34:55;4.50;;;4.20;;
8584;SDS011;7180;52.742;11.420;2022-07-05T11:37:55;4.20;;;4.00;;
8584;SDS011;7180;52.742;11.420;2022-07-05T11:40:29;3.40;;;3.10;;
8584;SDS011;7180;52.742;11.420;2022-07-05T11:42:59;3.63;;;3.43;;
8584;SDS011;7180;52.742;11.420;2022-07-05T11:45:25;3.67;;;3.47;;
8584;SDS011;7180;52.742;11.420;2022-07-05T11:47:52;4.10;;;3.90;;
8584;SDS011;7180;52.742;11.420;2022-07-05T11:50:24;4.30;;;4.10;;
8584;SDS011;7180;52.742;11.420;2022-07-05T11:52:50;4.10;;;3.90;;
8584;SDS011;7180;52.742;11.420;2022-07-05T11:55:16;3.93;;;3.73;;
8584;SDS011;7180;52.742;11.420;2022-07-05T11:57:49;4.43;;;4.07;;
8584;SDS011;7180;52.742;11.420;2022-07-05T12:03:18;3.57;;;3.30;;
8584;SDS011;7180;52.742;11.420;2022-07-05T12:05:43;4.60;;;4.30;;
8584;SDS011;7180;52.742;11.420;2022-07-05T12:08:08;3.90;;;3.70;;
8584;SDS011;7180;52.742;11.420;2022-07-05T12:10:34;3.90;;;3.70;;
8584;SDS011;7180;52.742;11.420;2022-07-05T12:13:19;4.50;;;4.23;;
8584;SDS011;7180;52.742;11.420;2022-07-05T12:15:44;4.07;;;3.87;;
8584;SDS011;7180;52.742;11.420;2022-07-05T12:18:11;3.90;;;3.70;;
8584;SDS011;7180;52.742;11.420;2022-07-05T12:20:38;4.33;;;4.03;;
8584;SDS011;7180;52.742;11.420;2022-07-05T12:23:04;4.30;;;4.10;;
8584;SDS011;7180;52.742;11.420;2022-07-05T12:25:31;4.00;;;3.80;;
8584;SDS011;7180;52.742;11.420;2022-07-05T12:27:58;3.87;;;3.57;;
8584;SDS011;7180;52.742;11.420;2022-07-05T12:30:27;4.20;;;4.00;;
8584;SDS011;7180;52.742;11.420;2022-07-05T12:32:57;4.00;;;3.80;;
8584;SDS011;7180;52.742;11.420;2022-07-05T12:38:03;3.90;;;3.70;;
8584;SDS011;7180;52.742;11.420;2022-07-05T12:40:33;4.53;;;4.33;;
8584;SDS011;7180;52.742;11.420;2022-07-05T12:43:04;4.17;;;3.97;;
8584;SDS011;7180;52.742;11.420;2022-07-05T12:45:31;4.30;;;4.10;;
8584;SDS011;7180;52.742;11.420;2022-07-05T12:47:57;4.00;;;3.80;;
8584;SDS011;7180;52.742;11.420;2022-07-05T12:50:26;3.57;;;3.43;;
8584;SDS011;7180;52.742;11.420;2022-07-05T12:53:11;3.90;;;3.80;;
8584;SDS011;7180;52.742;11.420;2022-07-05T12:56:03;4.13;;;3.90;;
8584;SDS011;7180;52.742;11.420;2022-07-05T12:58:49;4.40;;;4.20;;
8584;SDS011;7180;52.742;11.420;2022-07-05T13:01:29;5.40;;;3.70;;
8584;SDS011;7180;52.742;11.420;2022-07-05T13:04:11;4.30;;;4.10;;
8584;SDS011;7180;52.742;11.420;2022-07-05T13:06:44;4.63;;;4.30;;
8584;SDS011;7180;52.742;11.420;2022-07-05T13:09:12;3.80;;;3.50;;
8584;SDS011;7180;52.742;11.420;2022-07-05T13:11:39;4.13;;;3.90;;
8584;SDS011;7180;52.742;11.420;2022-07-05T13:14:05;4.60;;;4.30;;
8584;SDS011;7180;52.742;11.420;2022-07-05T13:16:31;4.37;;;4.07;;
8584;SDS011;7180;52.742;11.420;2022-07-05T13:19:09;4.30;;;4.10;;
8584;SDS011;7180;52.742;11.420;2022-07-05T13:21:36;4.30;;;4.10;;
8584;SDS011;7180;52.742;11.420;2022-07-05T13:24:02;3.97;;;3.80;;
8584;SDS011;7180;52.742;11.420;2022-07-05T13:26:28;4.03;;;3.83;;
8584;SDS011;7180;52.742;11.420;2022-07-05T13:28:53;3.97;;;3.70;;
8584;SDS011;7180;52.742;11.420;2022-07-05T13:31:19;3.70;;;3.60;;
8584;SDS011;7180;52.742;11.420;2022-07-05T13:33:45;4.30;;;4.10;;
8584;SDS011;7180;52.742;11.420;2022-07-05T13:36:10;3.70;;;3.50;;
8584;SDS011;7180;52.742;11.420;2022-07-05T13:38:36;3.70;;;3.50;;
8584;SDS011;7180;52.742;11.420;2022-07-05T13:41:01;4.20;;;4.00;;
8584;SDS011;7180;52.742;11.420;2022-07-05T13:43:26;4.20;;;3.90;;
8584;SDS011;7180;52.742;11.420;2022-07-05T13:45:51;4.37;;;4.10;;
8584;SDS011;7180;52.742;11.420;2022-07-05T13:48:17;3.93;;;3.73;;
8584;SDS011;7180;52.742;11.420;2022-07-05T13:50:42;3.80;;;3.60;;
8584;SDS011;7180;52.742;11.420;2022-07-05T13:53:07;4.20;;;3.90;;
8584;SDS011;7180;52.742;11.420;2022-07-05T13:55:33;3.70;;;3.50;;
8584;SDS011;7180;52.742;11.420;2022-07-05T13:57:58;3.23;;;3.13;;
8584;SDS011;7180;52.742;11.420;2022-07-05T14:00:24;3.60;;;3.33;;
8584;SDS011;7180;52.742;11.420;2022-07-05T14:02:51;3.70;;;3.50;;
8584;SDS011;7180;52.742;11.420;2022-07-05T14:05:16;3.83;;;3.70;;
8584;SDS011;7180;52.742;11.420;2022-07-05T14:07:43;4.27;;;4.03;;
8584;SDS011;7180;52.742;11.420;2022-07-05T14:10:08;3.20;;;3.10;;
8584;SDS011;7180;52.742;11.420;2022-07-05T14:12:34;3.90;;;3.70;;
8584;SDS011;7180;52.742;11.420;2022-07-05T14:14:59;3.80;;;3.60;;
8584;SDS011;7180;52.742;11.420;2022-07-05T14:17:24;3.20;;;3.00;;
8584;SDS011;7180;52.742;11.420;2022-07-05T14:19:49;3.00;;;2.80;;
8584;SDS011;7180;52.742;11.420;2022-07-05T14:22:15;3.80;;;3.50;;
8584;SDS011;7180;52.742;11.420;2022-07-05T14:24:40;3.63;;;3.53;;
8584;SDS011;7180;52.742;11.420;2022-07-05T14:27:05;4.10;;;3.90;;
8584;SDS011;7180;52.742;11.420;2022-07-05T14:29:32;3.50;;;3.40;;
8584;SDS011;7180;52.742;11.420;2022-07-05T14:31:58;3.30;;;3.20;;
8584;SDS011;7180;52.742;11.420;2022-07-05T14:34:23;3.37;;;3.20;;
8584;SDS011;7180;52.742;11.420;2022-07-05T14:36:48;3.80;;;3.60;;
8584;SDS011;7180;52.742;11.420;2022-07-05T14:39:13;3.70;;;3.40;;
8584;SDS011;7180;52.742;11.420;2022-07-05T14:41:39;3.70;;;3.50;;
8584;SDS011;7180;52.742;11.420;2022-07-05T14:44:04;3.60;;;3.40;;
8584;SDS011;7180;52.742;11.420;2022-07-05T14:46:29;3.57;;;3.30;;
8584;SDS011;7180;52.742;11.420;2022-07-05T14:48:54;4.80;;;3.93;;
8584;SDS011;7180;52.742;11.420;2022-07-05T14:51:21;3.10;;;2.93;;
8584;SDS011;7180;52.742;11.420;2022-07-05T14:53:46;3.73;;;3.50;;
8584;SDS011;7180;52.742;11.420;2022-07-05T14:56:12;3.47;;;3.30;;
8584;SDS011;7180;52.742;11.420;2022-07-05T14:58:38;3.70;;;3.50;;
8584;SDS011;7180;52.742;11.420;2022-07-05T15:01:04;3.33;;;3.20;;
8584;SDS011;7180;52.742;11.420;2022-07-05T15:03:29;3.90;;;3.70;;
8584;SDS011;7180;52.742;11.420;2022-07-05T15:05:54;3.53;;;3.30;;
8584;SDS011;7180;52.742;11.420;2022-07-05T15:08:20;3.60;;;3.30;;
8584;SDS011;7180;52.742;11.420;2022-07-05T15:10:46;3.20;;;3.00;;
8584;SDS011;7180;52.742;11.420;2022-07-05T15:13:11;3.40;;;3.30;;
8584;SDS011;7180;52.742;11.420;2022-07-05T15:15:37;3.77;;;3.60;;
8584;SDS011;7180;52.742;11.420;2022-07-05T15:18:03;3.33;;;3.23;;
8584;SDS011;7180;52.742;11.420;2022-07-05T15:20:28;3.33;;;3.22;;
8584;SDS011;7180;52.742;11.420;2022-07-05T15:22:53;3.10;;;3.00;;
8584;SDS011;7180;52.742;11.420;2022-07-05T15:25:19;3.03;;;2.93;;
8584;SDS011;7180;52.742;11.420;2022-07-05T15:27:44;2.97;;;2.77;;
8584;SDS011;7180;52.742;11.420;2022-07-05T15:30:10;3.23;;;3.07;;